Time;durP1;ratioP1;P1;durP2;ratioP2;P2;SDS_P1;SDS_P2;PMS_P1;PMS_P2;Temp;Humidity;BMP_temperature;BMP_pressure;BME280_temperature;BME280_humidity;BME280_pressure;Samples;Min_cycle;Max_cycle;Signal;HPM_P1;HPM_P2
2021/03/21 00:02:05;;;;;;;2.33;1.30;;;;;;;-0.93;69.43;98132.72;1685548;84;21143;-64
2021/03/21 00:04:34;;;;;;;2.08;1.40;;;;;;;-0.93;69.65;98132.72;1685786;84;21242;-64
2021/03/21 00:07:11;;;;;;;2.85;2.25;;;;;;;-0.96;69.60;98120.92;1685734;84;21166;-64
2021/03/21 00:09:40;;;;;;;2.15;1.92;;;;;;;-0.96;69.60;98120.92;1685700;84;21628;-64
2021/03/21 00:12:17;;;;;;;1.98;1.80;;;;;;;-0.97;69.81;98121.80;1685727;84;21576;-62
2021/03/21 00:14:44;;;;;;;13.22;2.15;;;;;;;-1.03;69.95;98123.37;1685817;84;21553;-63
2021/03/21 00:17:12;;;;;;;3.65;1.75;;;;;;;-1.07;69.75;98116.30;1685793;84;21576;-62
2021/03/21 00:19:40;;;;;;;2.30;2.10;;;;;;;-1.07;69.75;98116.30;1685539;84;21183;-60
2021/03/21 00:22:08;;;;;;;3.27;2.75;;;;;;;-1.10;70.02;98115.61;1685662;85;21159;-60
2021/03/21 00:24:36;;;;;;;3.47;2.40;;;;;;;-1.13;70.15;98114.48;1685578;84;21192;-60
2021/03/21 00:27:10;;;;;;;2.15;1.57;;;;;;;-1.19;70.32;98112.19;1685588;84;21155;-59
2021/03/21 00:29:38;;;;;;;4.70;2.65;;;;;;;-1.23;70.31;98117.86;1685753;84;21163;-62
2021/03/21 00:32:10;;;;;;;6.10;2.77;;;;;;;-1.25;70.41;98109.92;1666296;85;21199;-60
2021/03/21 00:34:39;;;;;;;1.75;1.65;;;;;;;-1.34;70.43;98104.77;1685393;83;22801;-62
2021/03/21 00:37:07;;;;;;;3.45;1.87;;;;;;;-1.34;70.43;98104.77;1685328;84;21153;-62
2021/03/21 00:39:36;;;;;;;1.82;1.62;;;;;;;-1.37;70.59;98104.07;1685555;84;21663;-61
2021/03/21 00:42:08;;;;;;;4.30;2.42;;;;;;;-1.42;70.67;98098.34;1687051;84;21183;-60
2021/03/21 00:44:36;;;;;;;2.15;1.57;;;;;;;-1.42;70.67;98098.34;1685679;85;21168;-60
2021/03/21 00:47:06;;;;;;;3.50;3.17;;;;;;;-1.44;70.58;98095.41;1685751;84;21203;-60
2021/03/21 00:49:34;;;;;;;1.98;1.75;;;;;;;-1.45;70.46;98092.50;1685417;84;21174;-62
2021/03/21 00:52:04;;;;;;;4.37;2.52;;;;;;;-1.47;70.40;98091.72;1685313;84;21232;-62
2021/03/21 00:54:32;;;;;;;5.92;4.20;;;;;;;-1.57;70.68;98081.56;1685362;84;21179;-60
2021/03/21 00:57:00;;;;;;;3.55;2.47;;;;;;;-1.57;70.68;98081.56;1685462;84;21179;-60
2021/03/21 00:59:28;;;;;;;3.37;2.87;;;;;;;-1.56;70.68;98083.66;1685576;84;21167;-61
2021/03/21 01:01:55;;;;;;;1.50;1.37;;;;;;;-1.62;70.73;98084.73;1685294;84;21600;-60
2021/03/21 01:04:24;;;;;;;3.80;3.50;;;;;;;-1.67;70.72;98075.19;1685569;83;21250;-62
2021/03/21 01:06:52;;;;;;;7.55;1.90;;;;;;;-1.69;70.80;98073.61;1685500;84;21572;-62
2021/03/21 01:09:19;;;;;;;5.60;3.05;;;;;;;-1.75;70.84;98067.52;1685319;84;21163;-62
2021/03/21 01:11:47;;;;;;;2.80;1.92;;;;;;;-1.82;71.05;98056.73;1685453;84;21192;-62
2021/03/21 01:14:15;;;;;;;4.70;2.27;;;;;;;-1.82;71.05;98056.73;1685428;84;21171;-60
2021/03/21 01:16:43;;;;;;;3.02;2.10;;;;;;;-1.80;71.00;98064.33;1685260;84;21140;-64
2021/03/21 01:19:16;;;;;;;1.82;1.70;;;;;;;-1.83;71.14;98065.29;1685445;85;21144;-61
2021/03/21 01:21:46;;;;;;;2.08;1.87;;;;;;;-1.87;71.26;98067.58;1685465;84;21163;-61
2021/03/21 01:24:18;;;;;;;2.02;1.85;;;;;;;-1.96;71.49;98059.88;1685637;84;21163;-61
2021/03/21 01:26:47;;;;;;;3.12;2.85;;;;;;;-2.01;71.56;98069.84;1685304;83;21151;-62
2021/03/21 01:29:15;;;;;;;2.00;1.42;;;;;;;-2.01;71.56;98069.84;1685475;84;21200;-61
2021/03/21 01:31:44;;;;;;;5.33;1.87;;;;;;;-2.05;71.55;98062.78;1685722;84;21580;-61
2021/03/21 01:34:14;;;;;;;3.92;1.72;;;;;;;-2.08;71.56;98062.92;1671942;84;21154;-62
2021/03/21 01:36:42;;;;;;;1.80;1.62;;;;;;;-2.13;71.89;98061.44;1656437;86;21147;-62
2021/03/21 01:39:23;;;;;;;1.72;1.57;;;;;;;-2.14;71.77;98058.54;1656421;86;21183;-62
2021/03/21 01:42:06;;;;;;;1.80;1.70;;;;;;;-2.18;71.73;98058.28;1656185;86;21273;-61
2021/03/21 01:44:34;;;;;;;1.65;1.55;;;;;;;-2.20;71.83;98052.41;1656288;87;21603;-61
2021/03/21 01:47:23;;;;;;;2.75;2.52;;;;;;;-2.23;71.84;98056.35;1656435;86;21174;-61
2021/03/21 01:49:52;;;;;;;4.55;2.00;;;;;;;-2.24;71.78;98058.50;1656436;86;21583;-62
2021/03/21 01:52:34;;;;;;;2.35;1.65;;;;;;;-2.27;71.90;98054.82;1656076;85;21619;-63
2021/03/21 01:55:07;;;;;;;2.80;1.80;;;;;;;-2.28;71.91;98050.62;1656269;87;21174;-64
2021/03/21 01:57:35;;;;;;;1.20;1.15;;;;;;;-2.29;71.93;98056.58;1656424;87;21151;-64
2021/03/21 02:00:07;;;;;;;2.45;1.45;;;;;;;-2.30;71.77;98054.95;1656553;86;21217;-61
2021/03/21 02:02:37;;;;;;;1.55;1.45;;;;;;;-2.31;71.85;98054.56;1656242;86;21182;-61
2021/03/21 02:05:28;;;;;;;2.25;1.52;;;;;;;-2.36;71.78;98052.64;1656504;86;21203;-61
2021/03/21 02:08:34;;;;;;;2.75;1.95;;;;;;;-2.38;71.77;98056.53;1656364;85;21179;-61
2021/03/21 02:11:47;;;;;;;2.62;1.57;;;;;;;-2.43;71.87;98050.35;1654317;86;21162;-61
2021/03/21 02:15:05;;;;;;;0.75;0.75;;;;;;;-2.46;72.00;98053.46;1628405;88;21604;-61
2021/03/21 02:17:37;;;;;;;1.62;1.52;;;;;;;-2.49;72.06;98051.05;1654007;87;21225;-65
2021/03/21 02:20:23;;;;;;;2.83;2.62;;;;;;;-2.59;71.77;98051.01;1653964;86;21673;-62
2021/03/21 02:26:12;;;;;;;0.93;0.90;;;;;;;-2.66;72.15;98047.89;1649340;86;21600;-60
2021/03/21 02:29:14;;;;;;;1.75;1.65;;;;;;;-2.68;71.88;98040.75;1665403;84;21188;-60
2021/03/21 02:32:03;;;;;;;1.45;1.15;;;;;;;-2.70;71.96;98042.53;1668657;84;21197;-61
2021/03/21 02:34:52;;;;;;;2.52;1.60;;;;;;;-2.72;72.05;98039.68;1711399;84;21214;-63
2021/03/21 02:37:51;;;;;;;1.37;1.27;;;;;;;-2.74;72.18;98042.70;1711818;83;21178;-63
2021/03/21 02:40:46;;;;;;;8.38;1.32;;;;;;;-2.79;72.28;98037.80;1711736;84;21232;-59
2021/03/21 02:43:37;;;;;;;2.10;1.22;;;;;;;-2.83;72.21;98033.72;1676880;84;21249;-62
2021/03/21 02:46:28;;;;;;;3.15;1.52;;;;;;;-2.87;72.19;98034.28;1711236;84;21185;-63
2021/03/21 02:49:14;;;;;;;2.00;1.67;;;;;;;-2.91;72.04;98034.02;1691783;84;21142;-62
2021/03/21 02:51:47;;;;;;;1.47;1.12;;;;;;;-2.93;71.96;98030.72;1711803;83;21943;-62
2021/03/21 02:54:43;;;;;;;3.72;2.70;;;;;;;-2.95;71.89;98032.47;1677139;85;21239;-62
2021/03/21 02:57:17;;;;;;;2.05;1.62;;;;;;;-2.96;71.92;98038.91;1711937;82;21161;-62
2021/03/21 02:59:50;;;;;;;1.75;1.60;;;;;;;-2.99;71.91;98033.47;1677053;85;21144;-63
2021/03/21 03:02:32;;;;;;;2.08;1.90;;;;;;;-3.02;71.99;98034.03;1711950;83;21145;-63
2021/03/21 03:05:12;;;;;;;4.87;1.82;;;;;;;-3.06;72.25;98024.44;1711749;82;21236;-64
2021/03/21 03:07:52;;;;;;;1.92;1.77;;;;;;;-3.07;71.90;98025.31;1711767;83;21176;-64
2021/03/21 03:10:53;;;;;;;1.32;1.22;;;;;;;-3.07;72.12;98027.02;1676667;84;21157;-64
2021/03/21 03:13:25;;;;;;;0.82;0.82;;;;;;;-3.08;72.12;98026.66;1685153;84;21199;-64
2021/03/21 03:16:01;;;;;;;1.45;1.17;;;;;;;-3.10;72.29;98030.95;1729296;82;21637;-63
2021/03/21 03:18:46;;;;;;;0.98;0.95;;;;;;;-3.11;72.28;98033.13;1729464;82;21161;-64
2021/03/21 03:21:40;;;;;;;2.00;1.87;;;;;;;-3.13;72.35;98029.80;1723827;82;21120;-64
2021/03/21 03:24:19;;;;;;;1.12;1.05;;;;;;;-3.15;72.48;98030.31;1726109;81;21189;-67
2021/03/21 03:26:55;;;;;;;1.60;1.47;;;;;;;-3.18;72.45;98025.33;1693177;83;21180;-63
2021/03/21 03:29:35;;;;;;;2.33;2.12;;;;;;;-3.21;72.38;98021.20;1726631;81;21185;-70
2021/03/21 03:32:08;;;;;;;5.25;1.17;;;;;;;-3.23;72.42;98014.53;1679083;83;21316;-61
2021/03/21 03:34:39;;;;;;;1.22;1.05;;;;;;;-3.23;72.29;98022.16;1700846;83;21273;-67
2021/03/21 03:40:28;;;;;;;2.22;1.65;;;;;;;-3.24;72.03;98012.44;1704619;83;21151;-61
2021/03/21 03:43:49;;;;;;;1.32;1.20;;;;;;;-3.27;72.04;98006.20;1734136;81;21150;-61
2021/03/21 03:46:46;;;;;;;3.58;1.15;;;;;;;-3.27;72.27;98001.56;1734096;82;21209;-61
2021/03/21 03:49:29;;;;;;;4.50;2.50;;;;;;;-3.36;72.37;97999.75;1734085;82;21122;-61
2021/03/21 03:52:23;;;;;;;1.00;0.75;;;;;;;-3.47;72.67;98004.83;1760502;80;21119;-61
2021/03/21 03:55:14;;;;;;;0.68;0.68;;;;;;;-3.49;72.81;98002.78;1677019;84;21165;-61
2021/03/21 03:58:04;;;;;;;1.37;1.27;;;;;;;-3.55;72.83;98000.47;1761442;81;21210;-61
2021/03/21 04:00:44;;;;;;;2.25;2.05;;;;;;;-3.56;72.96;98002.62;1761358;81;21289;-61
2021/03/21 04:03:46;;;;;;;2.00;1.87;;;;;;;-3.59;72.74;97998.49;1794287;80;21558;-61
2021/03/21 04:06:26;;;;;;;1.55;1.45;;;;;;;-3.58;72.80;97996.31;1794513;79;21276;-61
2021/03/21 04:09:12;;;;;;;1.62;1.32;;;;;;;-3.59;72.97;97998.92;1794127;80;21197;-60
2021/03/21 04:11:48;;;;;;;1.57;1.47;;;;;;;-3.58;72.81;97996.78;1795187;80;21178;-62
2021/03/21 04:14:23;;;;;;;1.67;1.57;;;;;;;-3.56;72.80;97990.76;1794020;80;21173;-61
2021/03/21 04:16:58;;;;;;;3.98;1.35;;;;;;;-3.58;72.87;97990.44;1794547;80;21151;-60
2021/03/21 04:19:31;;;;;;;2.30;2.05;;;;;;;-3.60;72.60;97988.37;1793094;80;21150;-60
2021/03/21 04:22:07;;;;;;;2.00;1.82;;;;;;;-3.65;72.49;97987.27;1794892;80;21276;-65
2021/03/21 04:24:44;;;;;;;10.15;1.70;;;;;;;-3.64;72.29;97987.66;1794984;80;21130;-63
2021/03/21 04:27:20;;;;;;;1.92;1.80;;;;;;;-3.66;72.21;97988.17;1767655;79;21147;-68
2021/03/21 04:33:05;;;;;;;2.30;1.17;;;;;;;-3.81;71.40;97991.23;1781845;79;21579;-65
2021/03/21 04:35:38;;;;;;;1.02;0.98;;;;;;;-3.81;71.44;97995.04;1749549;82;21286;-63
2021/03/21 04:38:35;;;;;;;0.68;0.68;;;;;;;-3.77;71.59;97995.31;1781846;80;21541;-62
2021/03/21 04:41:08;;;;;;;3.55;1.67;;;;;;;-3.71;71.66;98001.90;1781808;80;21183;-64
2021/03/21 04:43:58;;;;;;;1.22;0.70;;;;;;;-3.72;70.89;97998.97;1749525;82;21225;-64
2021/03/21 04:49:25;;;;;;;1.55;1.45;;;;;;;-3.89;70.91;97997.84;1672971;82;21615;-62
2021/03/21 04:52:02;;;;;;;1.60;1.50;;;;;;;-3.88;70.83;97993.16;1721253;82;21151;-60
2021/03/21 04:54:35;;;;;;;0.72;0.72;;;;;;;-3.87;70.59;97997.80;1720760;82;21651;-62
2021/03/21 04:57:31;;;;;;;0.55;0.55;;;;;;;-3.94;70.71;97988.76;1721201;82;21175;-62
2021/03/21 05:00:00;;;;;;;1.20;1.12;;;;;;;-3.88;70.80;97998.24;1720995;82;21624;-62
2021/03/21 05:02:33;;;;;;;1.22;1.22;;;;;;;-3.87;70.60;97993.56;1721030;82;21230;-64
2021/03/21 05:05:10;;;;;;;1.25;1.17;;;;;;;-3.77;70.48;97991.98;1721103;82;21191;-61
2021/03/21 05:10:48;;;;;;;1.47;1.35;;;;;;;-3.72;69.73;97993.89;1705815;82;21162;-62
2021/03/21 05:16:35;;;;;;;0.50;0.50;;;;;;;-3.54;70.13;97997.86;1699742;83;21238;-63
2021/03/21 05:19:24;;;;;;;8.95;2.25;;;;;;;-3.54;70.18;97994.05;1705008;82;21595;-61
2021/03/21 05:21:57;;;;;;;0.78;0.78;;;;;;;-3.51;68.92;97977.91;1703077;82;21603;-60
2021/03/21 05:24:34;;;;;;;0.70;0.70;;;;;;;-3.50;69.39;97975.29;1705191;81;21340;-63
2021/03/21 05:27:22;;;;;;;0.85;0.78;;;;;;;-3.44;69.61;97973.81;1705100;83;21165;-63
2021/03/21 05:29:56;;;;;;;2.37;2.15;;;;;;;-3.36;69.81;97981.14;1704571;82;21792;-64
2021/03/21 05:32:24;;;;;;;1.80;1.45;;;;;;;-3.41;68.91;97989.36;1701718;83;21203;-65
2021/03/21 05:34:57;;;;;;;1.75;0.98;;;;;;;-3.37;68.57;97990.91;1704932;83;21134;-60
2021/03/21 05:37:51;;;;;;;1.95;1.57;;;;;;;-3.29;69.25;97984.27;1704902;84;21303;-63
2021/03/21 05:44:06;;;;;;;1.52;1.42;;;;;;;-3.21;67.27;97982.27;1772974;80;21267;-61
2021/03/21 05:47:09;;;;;;;5.05;1.75;;;;;;;-3.14;67.81;97984.96;1735115;80;21163;-62
2021/03/21 05:49:46;;;;;;;0.55;0.55;;;;;;;-3.06;68.48;97986.77;1775788;80;21306;-61
2021/03/21 05:52:36;;;;;;;1.27;1.22;;;;;;;-2.93;69.31;97981.17;1776031;80;21305;-61
2021/03/21 05:55:51;;;;;;;3.12;2.58;;;;;;;-2.80;69.31;97976.41;1774705;80;21353;-61
2021/03/21 05:58:51;;;;;;;1.55;1.45;;;;;;;-2.71;68.87;97976.50;1665696;86;21212;-61
2021/03/21 06:01:55;;;;;;;1.02;0.95;;;;;;;-2.58;69.15;97981.05;1732334;83;21139;-61
2021/03/21 06:04:50;;;;;;;5.50;3.20;;;;;;;-2.50;68.48;97980.30;1763158;81;21187;-60
2021/03/21 06:07:53;;;;;;;1.47;1.37;;;;;;;-2.48;66.68;97978.94;1763180;81;21159;-62
2021/03/21 06:10:51;;;;;;;1.15;1.05;;;;;;;-2.38;66.76;97976.86;1757772;81;21177;-62
2021/03/21 06:13:51;;;;;;;1.72;1.60;;;;;;;-2.22;67.16;97966.44;1757520;81;21148;-61
2021/03/21 06:16:43;;;;;;;1.67;1.57;;;;;;;-2.11;65.59;97964.27;1724136;82;21152;-61
2021/03/21 06:30:50;;;;;;;1.75;1.65;;;;;;;-1.49;62.96;97964.91;1780113;79;22852;-62
2021/03/21 06:33:30;;;;;;;2.95;0.70;;;;;;;-1.45;62.97;97968.97;1727778;82;21152;-62
2021/03/21 06:36:09;;;;;;;2.05;1.85;;;;;;;-1.30;62.79;97966.61;1752152;82;21168;-62
2021/03/21 06:39:04;;;;;;;1.40;1.30;;;;;;;-1.11;63.42;97963.59;1753433;80;21176;-62
2021/03/21 06:42:13;;;;;;;1.17;1.17;;;;;;;-0.94;61.49;97962.83;1753283;80;21128;-62
2021/03/21 06:45:21;;;;;;;2.17;1.98;;;;;;;-0.88;60.58;97962.08;1713644;84;21639;-61
2021/03/21 06:48:21;;;;;;;0.90;0.90;;;;;;;-0.73;60.28;97960.52;1713722;84;21174;-60
2021/03/21 06:54:39;;;;;;;2.98;1.60;;;;;;;-0.33;59.15;97947.93;1654281;87;21629;-60
2021/03/21 06:58:02;;;;;;;1.32;1.27;;;;;;;-0.13;59.01;97941.39;1654398;87;21266;-62
2021/03/21 07:04:22;;;;;;;1.20;1.10;;;;;;;0.02;57.15;97946.16;1683341;84;21267;-63
2021/03/21 07:07:07;;;;;;;1.67;1.57;;;;;;;0.13;57.80;97939.59;1653126;86;21591;-63
2021/03/21 07:09:55;;;;;;;1.37;1.30;;;;;;;0.10;57.32;97938.48;1652475;86;21195;-63
2021/03/21 07:13:13;;;;;;;1.55;1.17;;;;;;;0.23;56.59;97938.23;1652425;87;21610;-63
2021/03/21 07:16:16;;;;;;;3.17;1.52;;;;;;;0.44;57.82;97943.48;1652817;87;21194;-62
2021/03/21 07:19:08;;;;;;;5.20;3.15;;;;;;;0.52;56.53;97934.13;1652995;86;21199;-63
2021/03/21 07:22:18;;;;;;;2.95;2.20;;;;;;;0.58;55.43;97933.00;1626028;87;21654;-62
2021/03/21 07:28:32;;;;;;;1.07;0.98;;;;;;;0.99;54.60;97925.63;1735218;82;21189;-63
2021/03/21 07:31:17;;;;;;;2.20;2.00;;;;;;;1.29;53.57;97923.91;1736940;82;21194;-63
2021/03/21 07:33:56;;;;;;;0.47;0.37;;;;;;;1.29;53.57;97923.91;1737014;82;21210;-63
2021/03/21 07:36:50;;;;;;;5.10;2.85;;;;;;;1.58;54.90;97920.98;1735520;82;21162;-63
2021/03/21 07:39:30;;;;;;;1.60;1.50;;;;;;;1.41;52.15;97915.55;1736829;82;21159;-64
2021/03/21 07:42:33;;;;;;;1.15;0.72;;;;;;;1.60;51.26;97914.86;1736285;83;21686;-64
2021/03/21 07:45:18;;;;;;;2.62;1.62;;;;;;;1.67;50.97;97912.34;1647016;86;21288;-63
2021/03/21 07:48:05;;;;;;;1.55;1.45;;;;;;;1.70;51.10;97904.47;1673132;86;21195;-64
2021/03/21 07:51:05;;;;;;;1.52;1.42;;;;;;;1.90;49.55;97903.30;1673286;86;21580;-62
2021/03/21 07:53:59;;;;;;;0.72;0.65;;;;;;;1.93;51.67;97895.89;1673320;86;21206;-64
2021/03/21 07:56:48;;;;;;;2.98;2.72;;;;;;;2.12;49.45;97892.59;1819610;78;23045;-65
2021/03/21 07:59:23;;;;;;;0.95;0.95;;;;;;;2.17;49.83;97893.15;1792889;80;21151;-66
2021/03/21 08:01:52;;;;;;;1.62;1.50;;;;;;;2.37;50.06;97886.36;1792833;80;21251;-64
2021/03/21 08:04:26;;;;;;;1.25;1.15;;;;;;;2.52;50.14;97879.46;1762938;80;21156;-64
2021/03/21 08:10:23;;;;;;;1.57;0.90;;;;;;;2.87;50.08;97876.80;1613528;89;21211;-65
2021/03/21 08:12:59;;;;;;;3.15;2.70;;;;;;;3.19;50.38;97870.41;1613630;88;21333;-65
2021/03/21 08:15:29;;;;;;;;;;;;;;;3.41;48.12;97872.88;1622645;87;21180;-63
2021/03/21 08:18:22;;;;;;;2.83;2.42;;;;;;;3.60;49.65;97866.88;1641019;87;20150;-63
2021/03/21 08:24:33;;;;;;;1.50;1.40;;;;;;;3.47;46.90;97854.03;1674223;83;21166;-65
2021/03/21 08:27:06;;;;;;;2.60;2.12;;;;;;;3.60;47.04;97852.30;1675235;84;21248;-64
2021/03/21 08:29:59;;;;;;;3.00;1.92;;;;;;;3.62;46.60;97844.52;1675027;84;21201;-63
2021/03/21 08:32:31;;;;;;;4.03;3.02;;;;;;;3.93;46.82;97838.13;1674901;84;21177;-65
2021/03/21 08:35:18;;;;;;;2.22;2.02;;;;;;;3.58;46.60;97840.50;1675195;84;21202;-68
2021/03/21 08:37:50;;;;;;;1.45;1.35;;;;;;;3.91;48.38;97839.50;1661652;85;21212;-69
2021/03/21 08:40:33;;;;;;;2.98;2.20;;;;;;;3.89;48.79;97843.91;1674746;85;21197;-64
2021/03/21 08:43:28;;;;;;;4.53;3.05;;;;;;;3.97;47.63;97845.98;1675017;84;21217;-66
2021/03/21 08:46:11;;;;;;;3.37;2.50;;;;;;;4.02;47.39;97843.44;1674960;84;21632;-64
2021/03/21 08:48:42;;;;;;;4.97;3.22;;;;;;;4.11;47.25;97841.99;1674961;84;21192;-65
2021/03/21 08:51:18;;;;;;;4.28;2.72;;;;;;;4.05;48.33;97834.69;1674898;84;21657;-64
2021/03/21 08:54:10;;;;;;;2.87;2.25;;;;;;;4.17;47.80;97830.81;1674944;84;21197;-64
2021/03/21 08:56:42;;;;;;;3.17;2.22;;;;;;;4.40;48.47;97830.98;1674803;84;21666;-64
2021/03/21 08:59:37;;;;;;;4.95;2.65;;;;;;;4.79;50.23;97828.95;1673642;84;21244;-65
2021/03/21 09:02:19;;;;;;;4.58;2.90;;;;;;;4.90;46.24;97823.06;1674896;84;21669;-64
2021/03/21 09:05:22;;;;;;;1.77;1.50;;;;;;;5.05;47.13;97814.23;1674944;84;21225;-64
2021/03/21 09:08:04;;;;;;;3.70;2.02;;;;;;;5.48;48.14;97816.20;1628193;87;21247;-64
2021/03/21 09:10:43;;;;;;;4.58;1.80;;;;;;;6.01;50.42;97808.29;1643568;86;21139;-64
2021/03/21 09:13:27;;;;;;;7.22;2.98;;;;;;;6.52;51.74;97797.78;1639712;86;21163;-64
2021/03/21 09:16:09;;;;;;;6.60;3.08;;;;;;;7.04;51.08;97799.56;1621244;87;21144;-70
2021/03/21 09:18:42;;;;;;;5.30;3.00;;;;;;;7.32;46.51;97796.02;1643450;86;21147;-65
2021/03/21 09:21:27;;;;;;;4.75;3.00;;;;;;;7.75;42.43;97782.93;1643835;86;21261;-66
2021/03/21 09:26:46;;;;;;;6.65;2.58;;;;;;;7.78;41.15;97771.06;1637135;87;21202;-62
2021/03/21 09:29:19;;;;;;;5.92;3.10;;;;;;;8.40;40.57;97758.75;1637502;88;21179;-61
2021/03/21 09:31:51;;;;;;;9.05;4.00;;;;;;;8.21;43.57;97764.33;1637187;88;21616;-62
2021/03/21 09:34:36;;;;;;;7.87;3.08;;;;;;;8.31;42.49;97760.84;1637724;88;21151;-63
2021/03/21 09:37:15;;;;;;;4.55;3.00;;;;;;;8.63;41.84;97746.38;1618811;86;21245;-62
2021/03/21 09:40:00;;;;;;;6.58;3.42;;;;;;;8.42;41.57;97744.37;1609958;88;21588;-63
2021/03/21 09:42:30;;;;;;;3.35;2.30;;;;;;;8.78;39.10;97737.24;1604934;88;21152;-63
2021/03/21 09:44:59;;;;;;;5.28;2.50;;;;;;;8.89;35.56;97743.57;1631406;88;21200;-63
2021/03/21 09:47:32;;;;;;;4.58;2.98;;;;;;;8.97;34.52;97730.75;1631356;88;21223;-62
2021/03/21 09:50:46;;;;;;;7.83;3.22;;;;;;;10.03;36.44;97717.44;1637185;87;21689;-68
2021/03/21 09:53:58;;;;;;;7.75;3.45;;;;;;;10.92;41.43;97717.84;1637069;88;21244;-65
2021/03/21 09:56:37;;;;;;;8.78;3.90;;;;;;;11.17;39.22;97711.02;1595275;88;21249;-63
2021/03/21 09:59:28;;;;;;;6.20;3.83;;;;;;;10.87;32.80;97707.08;1642152;86;21209;-62
2021/03/21 10:02:37;;;;;;;5.97;3.75;;;;;;;11.48;37.25;97700.97;1714276;83;21212;-62
2021/03/21 10:06:00;;;;;;;8.53;4.40;;;;;;;11.43;35.93;97696.73;1714685;83;21193;-65
2021/03/21 10:08:54;;;;;;;8.78;3.67;;;;;;;11.06;31.37;97699.58;1672695;85;21169;-62
2021/03/21 10:11:36;;;;;;;9.80;3.30;;;;;;;11.39;30.17;97691.52;1637765;86;21179;-63
2021/03/21 10:14:31;;;;;;;5.58;3.30;;;;;;;11.27;32.25;97682.34;1672862;86;21165;-63
2021/03/21 10:17:23;;;;;;;8.10;4.12;;;;;;;11.67;33.68;97683.83;1637983;88;21162;-62
2021/03/21 10:19:55;;;;;;;6.10;3.92;;;;;;;11.22;30.24;97676.78;1672653;84;21158;-62
2021/03/21 10:22:34;;;;;;;7.35;3.33;;;;;;;11.16;33.98;97661.81;1637999;88;21585;-62
2021/03/21 10:25:13;;;;;;;6.47;3.62;;;;;;;11.80;32.65;97660.84;1637650;86;21250;-64
2021/03/21 10:27:45;;;;;;;6.75;3.22;;;;;;;11.50;30.55;97662.64;1671300;86;21178;-68
2021/03/21 10:30:39;;;;;;;9.78;4.75;;;;;;;11.95;35.82;97661.52;1637642;88;21192;-65
2021/03/21 10:33:22;;;;;;;8.60;3.05;;;;;;;11.96;29.96;97660.55;1634823;88;21179;-64
2021/03/21 10:35:52;;;;;;;7.55;3.90;;;;;;;12.39;28.98;97655.11;1672761;86;21138;-65
2021/03/21 10:38:45;;;;;;;7.50;4.08;;;;;;;12.90;27.67;97647.46;1637769;88;21180;-63
2021/03/21 10:41:52;;;;;;;8.13;4.55;;;;;;;12.60;28.39;97650.25;1637830;86;21214;-63
2021/03/21 10:44:34;;;;;;;11.18;5.58;;;;;;;12.47;28.90;97653.00;1673188;86;21178;-65
2021/03/21 10:47:26;;;;;;;11.50;3.58;;;;;;;11.49;30.00;97643.28;1637739;87;21630;-65
2021/03/21 10:50:05;;;;;;;4.97;3.30;;;;;;;13.23;28.58;97629.98;1672822;86;21598;-63
2021/03/21 10:52:46;;;;;;;5.35;3.10;;;;;;;14.78;26.79;97623.75;1637759;88;21180;-66
2021/03/21 10:55:22;;;;;;;6.05;3.75;;;;;;;15.33;24.59;97612.88;1637808;86;21182;-64
2021/03/21 10:58:31;;;;;;;9.18;4.17;;;;;;;15.68;24.54;97611.86;1666059;85;21581;-65
2021/03/21 11:01:24;;;;;;;7.17;3.85;;;;;;;14.99;25.35;97613.89;1699746;84;21600;-64
2021/03/21 11:04:06;;;;;;;6.95;4.05;;;;;;;14.82;26.02;97601.50;1699823;84;21183;-64
2021/03/21 11:06:40;;;;;;;9.35;4.12;;;;;;;14.43;26.14;97605.59;1665332;85;21576;-65
2021/03/21 11:09:33;;;;;;;7.05;4.87;;;;;;;14.80;25.50;97598.72;1663439;85;21714;-65
2021/03/21 11:12:06;;;;;;;5.30;3.47;;;;;;;12.89;27.64;97608.04;1713567;83;21303;-65
2021/03/21 11:14:37;;;;;;;7.60;4.37;;;;;;;14.05;27.22;97597.32;1713770;84;21607;-64
2021/03/21 11:17:28;;;;;;;5.70;4.20;;;;;;;13.85;28.32;97592.25;1713555;83;21202;-67
2021/03/21 11:19:57;;;;;;;9.05;4.55;;;;;;;13.24;27.02;97585.50;1713890;84;21567;-65
2021/03/21 11:22:31;;;;;;;6.62;3.83;;;;;;;13.11;28.16;97578.69;1713636;84;21169;-65
2021/03/21 11:25:02;;;;;;;11.60;4.60;;;;;;;13.74;26.18;97575.97;1713892;83;21202;-65
2021/03/21 11:27:34;;;;;;;6.85;4.65;;;;;;;14.06;27.49;97573.66;1713544;83;21194;-65
2021/03/21 11:30:33;;;;;;;6.33;3.95;;;;;;;13.15;27.30;97579.19;1713892;84;21173;-65
2021/03/21 11:36:32;;;;;;;6.05;3.70;;;;;;;12.91;27.10;97572.22;1704359;82;21233;-65
2021/03/21 11:39:32;;;;;;;6.28;3.75;;;;;;;12.97;26.09;97568.11;1670705;86;21245;-64
2021/03/21 11:42:04;;;;;;;5.62;4.08;;;;;;;12.74;26.10;97564.91;1659721;86;21192;-64
2021/03/21 11:44:32;;;;;;;5.95;3.52;;;;;;;13.34;25.80;97555.81;1659065;86;21175;-64
2021/03/21 11:47:15;;;;;;;11.38;3.72;;;;;;;14.06;27.08;97542.81;1659548;86;21211;-64
2021/03/21 11:49:44;;;;;;;6.28;3.77;;;;;;;13.85;26.05;97536.91;1658750;85;21202;-65
2021/03/21 11:52:12;;;;;;;9.33;4.22;;;;;;;14.20;25.43;97534.24;1659706;86;21187;-66
2021/03/21 11:54:42;;;;;;;7.22;4.37;;;;;;;14.17;26.03;97526.25;1659653;86;21592;-63
2021/03/21 11:57:49;;;;;;;6.60;4.28;;;;;;;13.73;26.96;97523.45;1659578;86;21194;-66
2021/03/21 12:00:37;;;;;;;7.53;4.03;;;;;;;14.03;26.23;97517.88;1659793;86;21580;-64
2021/03/21 12:03:16;;;;;;;6.40;4.08;;;;;;;15.36;23.70;97514.42;1659203;86;21191;-64
2021/03/21 12:06:04;;;;;;;8.33;4.58;;;;;;;15.20;24.06;97512.82;1659166;86;21155;-63
2021/03/21 12:08:41;;;;;;;7.62;4.45;;;;;;;15.75;23.47;97505.41;1659876;86;21235;-66
2021/03/21 12:14:23;;;;;;;6.92;4.22;;;;;;;16.56;23.02;97503.13;1669682;86;21587;-64
2021/03/21 12:16:54;;;;;;;7.80;4.30;;;;;;;15.01;26.67;97491.65;1669978;86;21146;-63
2021/03/21 12:19:30;;;;;;;8.13;5.40;;;;;;;15.00;24.78;97488.70;1645075;86;21122;-65
2021/03/21 12:22:03;;;;;;;8.00;4.33;;;;;;;15.80;24.95;97486.82;1667538;86;21155;-64
2021/03/21 12:24:34;;;;;;;6.60;4.40;;;;;;;16.22;23.54;97479.45;1667492;86;21145;-64
2021/03/21 12:27:08;;;;;;;8.65;5.50;;;;;;;16.38;23.78;97471.28;1667668;86;21553;-64
2021/03/21 12:29:44;;;;;;;9.15;5.50;;;;;;;15.26;24.82;97465.48;1664739;86;21225;-65
2021/03/21 12:32:37;;;;;;;8.78;5.78;;;;;;;15.00;30.75;97475.63;1667456;86;21124;-63
2021/03/21 12:35:23;;;;;;;10.78;5.58;;;;;;;15.17;25.18;97467.91;1667579;86;21156;-63
2021/03/21 12:37:58;;;;;;;11.35;6.03;;;;;;;15.17;25.32;97461.38;1667535;86;21148;-65
2021/03/21 12:40:53;;;;;;;7.95;5.08;;;;;;;14.91;28.52;97455.80;1667351;86;21152;-64
2021/03/21 12:43:29;;;;;;;10.47;5.70;;;;;;;14.54;26.27;97452.80;1627728;88;21174;-64
2021/03/21 12:46:11;;;;;;;9.18;5.75;;;;;;;13.99;27.02;97453.14;1627748;87;21587;-64
2021/03/21 12:48:55;;;;;;;13.60;6.95;;;;;;;14.16;26.50;97442.88;1648228;86;21155;-64
2021/03/21 12:51:34;;;;;;;11.20;5.60;;;;;;;13.61;27.75;97434.03;1648282;86;21225;-67
2021/03/21 12:54:05;;;;;;;8.33;4.87;;;;;;;14.32;27.21;97437.99;1647639;87;21190;-67
2021/03/21 12:56:33;;;;;;;9.23;5.65;;;;;;;13.75;29.07;97435.88;1647673;87;21535;-67
2021/03/21 12:59:01;;;;;;;6.75;3.92;;;;;;;13.71;27.73;97438.02;1647909;86;21604;-64
2021/03/21 13:01:29;;;;;;;6.58;4.42;;;;;;;13.45;28.35;97434.95;1650470;86;21620;-71
2021/03/21 13:03:58;;;;;;;9.35;4.40;;;;;;;12.61;29.04;97433.05;1626373;88;21297;-64
2021/03/21 13:06:26;;;;;;;7.70;4.97;;;;;;;11.80;29.85;97433.20;1657698;86;21607;-64
2021/03/21 13:08:55;;;;;;;9.15;5.17;;;;;;;11.52;31.56;97434.45;1658108;86;21222;-64
2021/03/21 13:11:23;;;;;;;4.92;3.77;;;;;;;11.42;30.41;97432.50;1658703;86;21231;-64
2021/03/21 13:13:51;;;;;;;8.13;4.25;;;;;;;11.43;30.98;97428.94;1626463;87;21161;-64
2021/03/21 13:16:19;;;;;;;8.08;4.83;;;;;;;10.30;32.43;97423.36;1651694;86;21636;-64
2021/03/21 13:18:47;;;;;;;10.45;4.70;;;;;;;10.39;35.93;97418.52;1624823;87;21170;-64
2021/03/21 13:21:15;;;;;;;4.87;3.47;;;;;;;10.03;33.42;97423.48;1626954;87;21207;-65
2021/03/21 13:23:43;;;;;;;8.20;4.40;;;;;;;10.39;32.42;97422.41;1645999;86;21608;-65
2021/03/21 13:26:11;;;;;;;8.15;3.65;;;;;;;10.23;32.25;97410.16;1627160;87;21230;-65
2021/03/21 13:28:39;;;;;;;6.67;3.33;;;;;;;10.20;32.75;97410.47;1626338;87;21719;-64
2021/03/21 13:31:08;;;;;;;5.80;3.77;;;;;;;10.23;33.03;97410.16;1657127;86;21182;-64
2021/03/21 13:33:36;;;;;;;10.05;3.70;;;;;;;10.26;37.59;97399.98;1627073;87;21182;-64
2021/03/21 13:36:08;;;;;;;7.15;4.28;;;;;;;9.94;33.25;97397.48;1618389;87;21191;-64
2021/03/21 13:38:37;;;;;;;9.28;4.80;;;;;;;9.80;33.44;97398.05;1657059;86;21190;-64
2021/03/21 13:41:06;;;;;;;6.55;3.90;;;;;;;9.55;33.96;97393.63;1640678;86;21246;-64